createdAt,value
2022-09-18T00:01:26.809Z,20.25
2022-09-18T00:03:59.165Z,11.45
2022-09-18T00:06:29.497Z,14.45
2022-09-18T00:08:58.268Z,9.27
2022-09-18T00:11:27.845Z,14.38
2022-09-18T00:13:55.449Z,10.52
2022-09-18T00:16:23.727Z,12.60
2022-09-18T00:18:50.647Z,11.20
2022-09-18T00:21:20.163Z,14.75
2022-09-18T00:23:48.012Z,16.27
2022-09-18T00:26:16.559Z,9.73
2022-09-18T00:28:43.928Z,7.68
2022-09-18T00:31:16.720Z,15.75
2022-09-18T00:33:44.054Z,13.93
2022-09-18T00:36:14.256Z,14.10
2022-09-18T00:38:41.712Z,14.07
2022-09-18T00:41:13.953Z,14.88
2022-09-18T00:43:41.118Z,10.23
2022-09-18T00:46:27.065Z,19.90
2022-09-18T00:49:27.039Z,17.55
2022-09-18T00:51:57.340Z,20.30
2022-09-18T00:54:32.686Z,14.88
2022-09-18T00:59:31.508Z,10.27
2022-09-18T01:01:59.982Z,13.45
2022-09-18T01:04:31.202Z,15.45
2022-09-18T01:07:21.787Z,17.02
2022-09-18T01:10:07.591Z,10.07
2022-09-18T01:15:39.879Z,13.05
2022-09-18T01:18:21.908Z,7.80
2022-09-18T01:21:09.315Z,16.13
2022-09-18T01:23:57.961Z,10.82
2022-09-18T01:26:48.790Z,14.15
2022-09-18T01:29:18.766Z,12.63
2022-09-18T01:31:59.034Z,10.95
2022-09-18T01:34:52.046Z,18.25
2022-09-18T01:37:26.117Z,20.20
2022-09-18T01:40:00.313Z,15.85
2022-09-18T01:42:30.094Z,10.18
2022-09-18T01:45:02.180Z,12.10
2022-09-18T01:47:34.629Z,9.10
2022-09-18T01:50:03.360Z,12.75
2022-09-18T01:52:42.104Z,12.05
2022-09-18T01:55:15.311Z,12.80
2022-09-18T01:57:55.782Z,23.45
2022-09-18T02:00:23.113Z,16.13
2022-09-18T02:02:52.557Z,13.80
2022-09-18T02:05:28.492Z,12.25
2022-09-18T02:08:38.626Z,15.63
2022-09-18T02:11:12.042Z,12.50
2022-09-18T02:13:45.199Z,11.00
2022-09-18T02:16:56.723Z,17.30
2022-09-18T02:19:32.745Z,13.65
2022-09-18T02:22:01.910Z,16.63
2022-09-18T02:24:33.736Z,13.68
2022-09-18T02:27:03.516Z,9.57
2022-09-18T02:29:31.458Z,13.38
2022-09-18T02:32:02.203Z,11.93
2022-09-18T02:34:30.730Z,13.95
2022-09-18T02:37:27.900Z,16.73
2022-09-18T02:40:28.075Z,14.25
2022-09-18T02:43:33.169Z,18.52
2022-09-18T02:46:06.865Z,12.52
2022-09-18T02:49:08.000Z,15.20
2022-09-18T02:51:41.714Z,12.23
2022-09-18T02:54:18.393Z,15.23
2022-09-18T02:57:02.359Z,17.23
2022-09-18T02:59:40.153Z,11.65
2022-09-18T03:02:09.352Z,10.38
2022-09-18T03:04:38.372Z,12.25
2022-09-18T03:07:09.897Z,12.73
2022-09-18T03:09:41.509Z,21.60
2022-09-18T03:12:08.909Z,17.55
2022-09-18T03:14:41.024Z,10.95
2022-09-18T03:17:09.207Z,15.88
2022-09-18T03:19:35.982Z,17.55
2022-09-18T03:22:03.517Z,16.55
2022-09-18T03:24:34.086Z,11.40
2022-09-18T03:27:02.859Z,13.48
2022-09-18T03:29:29.977Z,12.38
2022-09-18T03:31:57.538Z,15.52
2022-09-18T03:34:24.639Z,11.85
2022-09-18T03:36:51.638Z,11.57
2022-09-18T03:39:19.270Z,16.95
2022-09-18T03:41:47.377Z,14.73
2022-09-18T03:44:14.230Z,18.60
2022-09-18T03:46:43.014Z,14.02
2022-09-18T03:49:09.838Z,19.42
2022-09-18T03:51:38.984Z,8.75
2022-09-18T03:54:07.049Z,14.82
2022-09-18T03:57:09.023Z,18.60
2022-09-18T03:59:53.980Z,16.58
2022-09-18T04:02:42.989Z,16.50
2022-09-18T04:05:33.243Z,13.10
2022-09-18T04:08:18.482Z,12.45
2022-09-18T04:11:06.167Z,13.73
2022-09-18T04:13:34.847Z,13.93
2022-09-18T04:16:07.176Z,22.45
2022-09-18T04:18:34.254Z,10.32
2022-09-18T04:21:02.359Z,16.08
2022-09-18T04:23:29.404Z,15.00
2022-09-18T04:25:57.163Z,17.02
2022-09-18T04:28:28.813Z,12.55
2022-09-18T04:30:55.814Z,16.02
2022-09-18T04:33:23.102Z,15.00
2022-09-18T04:35:49.976Z,18.52
2022-09-18T04:38:16.867Z,17.88
2022-09-18T04:40:43.720Z,17.65
2022-09-18T04:43:11.681Z,17.42
2022-09-18T04:45:40.202Z,21.30
2022-09-18T04:48:07.009Z,16.48
2022-09-18T04:50:33.929Z,15.15
2022-09-18T04:53:11.339Z,15.35
2022-09-18T04:55:39.459Z,13.27
2022-09-18T04:58:09.537Z,14.20
2022-09-18T05:00:38.258Z,12.15
2022-09-18T05:03:06.488Z,15.05
2022-09-18T05:05:36.085Z,11.85
2022-09-18T05:08:04.557Z,13.30
2022-09-18T05:10:32.070Z,21.98
2022-09-18T05:13:00.061Z,11.20
2022-09-18T05:15:28.360Z,12.40
2022-09-18T05:18:00.846Z,14.60
2022-09-18T05:20:28.660Z,13.15
2022-09-18T05:23:00.870Z,17.77
2022-09-18T05:25:29.056Z,18.42
2022-09-18T05:27:57.793Z,13.45
2022-09-18T05:30:29.124Z,12.32
2022-09-18T05:33:04.558Z,22.92
2022-09-18T05:35:34.398Z,15.68
2022-09-18T05:38:01.986Z,15.48
2022-09-18T05:40:34.310Z,18.33
2022-09-18T05:43:03.127Z,21.83
2022-09-18T05:45:32.535Z,19.65
2022-09-18T05:48:02.963Z,16.88
2022-09-18T05:50:31.644Z,21.98
2022-09-18T05:53:08.299Z,17.80
2022-09-18T05:56:01.222Z,14.48
2022-09-18T05:58:30.466Z,16.67
2022-09-18T06:00:59.258Z,17.65
2022-09-18T06:03:33.063Z,12.00
2022-09-18T06:06:02.005Z,10.88
2022-09-18T06:08:28.905Z,17.52
2022-09-18T06:11:01.349Z,12.80
2022-09-18T06:13:32.678Z,11.15
2022-09-18T06:15:59.886Z,12.45
2022-09-18T06:18:51.102Z,15.32
2022-09-18T06:21:18.043Z,17.45
2022-09-18T06:23:44.950Z,11.80
2022-09-18T06:26:23.987Z,8.10
2022-09-18T06:28:51.519Z,12.75
2022-09-18T06:31:18.485Z,11.45
2022-09-18T06:34:11.546Z,14.27
2022-09-18T06:36:40.079Z,11.85
2022-09-18T06:39:45.598Z,14.23
2022-09-18T06:42:25.526Z,9.38
2022-09-18T06:45:13.024Z,7.68
2022-09-18T06:47:40.038Z,9.40
2022-09-18T06:50:08.948Z,13.98
2022-09-18T06:52:35.785Z,12.05
2022-09-18T06:55:05.422Z,6.18
2022-09-18T06:57:33.146Z,13.10
2022-09-18T06:59:59.953Z,9.57
2022-09-18T07:02:28.926Z,10.13
2022-09-18T07:05:27.476Z,7.55
2022-09-18T07:07:54.425Z,13.70
2022-09-18T07:10:22.848Z,12.68
2022-09-18T07:12:49.982Z,8.70
2022-09-18T07:15:20.024Z,8.57
2022-09-18T07:17:46.900Z,7.50
2022-09-18T07:20:16.611Z,10.52
2022-09-18T07:22:51.726Z,9.60
2022-09-18T07:25:18.709Z,9.30
2022-09-18T07:27:45.717Z,10.75
2022-09-18T07:30:14.796Z,13.82
2022-09-18T07:32:42.363Z,7.25
2022-09-18T07:35:14.357Z,16.85
2022-09-18T07:37:42.437Z,9.55
2022-09-18T07:40:14.866Z,8.00
2022-09-18T07:43:07.474Z,10.00
2022-09-18T07:45:35.614Z,7.32
2022-09-18T07:48:04.410Z,10.07
2022-09-18T07:50:35.462Z,8.80
2022-09-18T07:53:05.237Z,12.70
2022-09-18T07:55:39.628Z,9.15
2022-09-18T07:58:07.353Z,16.02
2022-09-18T08:00:53.036Z,10.02
2022-09-18T08:03:21.528Z,11.23
2022-09-18T08:06:07.360Z,10.55
2022-09-18T08:08:36.241Z,10.90
2022-09-18T08:11:13.195Z,8.45
2022-09-18T08:14:18.488Z,8.77
2022-09-18T08:17:03.753Z,6.60
2022-09-18T08:19:39.172Z,11.60
2022-09-18T08:22:14.599Z,7.47
2022-09-18T08:24:47.533Z,7.70
2022-09-18T08:27:14.784Z,6.20
2022-09-18T08:29:42.305Z,10.32
2022-09-18T08:32:10.627Z,8.10
2022-09-18T08:34:38.189Z,9.65
2022-09-18T08:37:05.362Z,9.85
2022-09-18T08:39:50.773Z,8.15
2022-09-18T08:42:47.218Z,8.02
2022-09-18T08:45:17.203Z,6.88
2022-09-18T08:48:00.320Z,8.10
2022-09-18T08:50:38.352Z,10.87
2022-09-18T08:53:30.443Z,6.28
2022-09-18T08:56:21.299Z,7.75
2022-09-18T08:59:26.489Z,10.65
2022-09-18T09:02:28.244Z,5.70
2022-09-18T09:05:01.496Z,6.65
2022-09-18T09:07:50.575Z,6.38
2022-09-18T09:10:17.742Z,5.40
2022-09-18T09:13:21.037Z,7.90
2022-09-18T09:16:03.064Z,6.22
2022-09-18T09:18:36.702Z,6.43
2022-09-18T09:21:20.736Z,5.60
2022-09-18T09:23:56.385Z,5.80
2022-09-18T09:26:57.009Z,6.15
2022-09-18T09:30:01.638Z,8.75
2022-09-18T09:33:04.722Z,7.97
2022-09-18T09:36:13.579Z,6.35
2022-09-18T09:39:08.903Z,7.80
2022-09-18T09:41:46.838Z,6.55
2022-09-18T09:44:30.414Z,6.57
2022-09-18T09:47:04.381Z,7.93
2022-09-18T09:49:50.727Z,9.70
2022-09-18T09:52:31.718Z,7.00
2022-09-18T09:55:19.734Z,5.10
2022-09-18T09:58:18.143Z,3.22
2022-09-18T10:00:48.906Z,6.38
2022-09-18T10:03:52.544Z,7.20
2022-09-18T10:07:05.130Z,4.53
2022-09-18T10:09:57.362Z,6.80
2022-09-18T10:12:45.522Z,3.22
2022-09-18T10:15:45.191Z,9.48
2022-09-18T10:18:20.881Z,6.35
2022-09-18T10:20:51.438Z,10.15
2022-09-18T10:23:35.128Z,7.30
2022-09-18T10:26:03.643Z,5.55
2022-09-18T10:28:32.679Z,9.27
2022-09-18T10:31:12.161Z,4.68
2022-09-18T10:33:47.506Z,11.10
2022-09-18T10:36:38.048Z,7.75
2022-09-18T10:39:31.979Z,8.20
2022-09-18T10:42:07.167Z,6.43
2022-09-18T10:44:39.890Z,8.05
2022-09-18T10:47:18.403Z,4.30
2022-09-18T10:49:59.270Z,7.80
2022-09-18T10:52:35.091Z,9.27
2022-09-18T10:55:18.271Z,7.60
2022-09-18T10:58:15.614Z,5.25
2022-09-18T11:03:59.520Z,8.48
2022-09-18T11:06:32.571Z,4.90
2022-09-18T11:09:10.801Z,4.28
2022-09-18T11:11:46.374Z,4.80
2022-09-18T11:14:26.179Z,7.55
2022-09-18T11:17:00.778Z,3.83
2022-09-18T11:19:36.178Z,4.28
2022-09-18T11:22:32.495Z,4.03
2022-09-18T11:25:16.436Z,3.60
2022-09-18T11:27:51.757Z,2.28
2022-09-18T11:30:27.938Z,3.60
2022-09-18T11:33:15.899Z,4.78
2022-09-18T11:35:49.039Z,8.68
2022-09-18T11:38:19.606Z,4.07
2022-09-18T11:40:51.768Z,5.07
2022-09-18T11:43:26.045Z,3.08
2022-09-18T11:46:25.768Z,2.13
2022-09-18T11:49:02.554Z,5.43
2022-09-18T11:51:55.398Z,3.72
2022-09-18T11:54:40.133Z,2.97
2022-09-18T11:57:18.296Z,4.00
2022-09-18T11:59:55.313Z,2.78
2022-09-18T12:05:41.686Z,3.35
2022-09-18T12:08:26.187Z,3.17
2022-09-18T12:11:08.322Z,7.72
2022-09-18T12:13:54.268Z,4.03
2022-09-18T12:16:30.666Z,4.75
2022-09-18T12:19:13.885Z,3.92
2022-09-18T12:22:08.293Z,3.42
2022-09-18T12:24:35.424Z,5.00
2022-09-18T12:27:14.854Z,3.60
2022-09-18T12:30:19.351Z,5.35
2022-09-18T12:33:37.160Z,5.07
2022-09-18T12:36:29.864Z,5.45
2022-09-18T12:39:21.589Z,6.95
2022-09-18T12:41:57.502Z,6.70
2022-09-18T12:44:39.576Z,3.65
2022-09-18T12:47:16.613Z,1.83
2022-09-18T12:50:12.072Z,6.07
2022-09-18T12:52:55.514Z,5.33
2022-09-18T12:55:43.716Z,2.30
2022-09-18T12:58:29.056Z,2.75
2022-09-18T13:01:01.779Z,4.90
2022-09-18T13:03:38.820Z,4.03
2022-09-18T13:06:15.269Z,3.55
2022-09-18T13:08:50.221Z,5.05
2022-09-18T13:11:42.921Z,3.45
2022-09-18T13:14:16.473Z,7.00
2022-09-18T13:16:50.736Z,4.75
2022-09-18T13:19:33.321Z,6.22
2022-09-18T13:22:05.737Z,5.00
2022-09-18T13:24:39.118Z,3.75
2022-09-18T13:27:11.874Z,4.78
2022-09-18T13:29:50.722Z,3.70
2022-09-18T13:32:19.940Z,6.53
2022-09-18T13:35:16.212Z,7.50
2022-09-18T13:40:37.434Z,8.55
2022-09-18T13:43:27.585Z,6.25
2022-09-18T13:46:02.452Z,7.65
2022-09-18T13:48:40.710Z,9.02
2022-09-18T13:51:10.595Z,6.40
2022-09-18T13:53:40.433Z,8.45
2022-09-18T13:56:13.018Z,9.00
2022-09-18T13:58:50.112Z,9.65
2022-09-18T14:01:42.244Z,6.90
2022-09-18T14:04:39.933Z,7.60
2022-09-18T14:07:26.993Z,8.63
2022-09-18T14:10:21.006Z,7.28
2022-09-18T14:13:06.326Z,8.20
2022-09-18T14:15:33.447Z,5.47
2022-09-18T14:18:16.756Z,8.52
2022-09-18T14:20:49.893Z,7.05
2022-09-18T14:23:35.612Z,7.20
2022-09-18T14:26:08.363Z,11.02
2022-09-18T14:28:36.474Z,8.13
2022-09-18T14:31:15.242Z,5.70
2022-09-18T14:33:43.586Z,5.47
2022-09-18T14:36:14.616Z,3.17
2022-09-18T14:38:41.846Z,5.93
2022-09-18T14:41:21.588Z,4.22
2022-09-18T14:43:53.192Z,3.78
2022-09-18T14:46:23.740Z,4.47
2022-09-18T14:48:51.390Z,7.38
2022-09-18T14:51:22.593Z,4.85
2022-09-18T14:53:52.677Z,4.75
2022-09-18T14:56:36.000Z,3.75
2022-09-18T14:59:08.444Z,8.30
2022-09-18T15:01:37.430Z,9.48
2022-09-18T15:04:06.854Z,9.25
